createdAt,value
2022-08-26T00:01:55.950Z,97572.53
2022-08-26T00:04:25.181Z,97562.44
2022-08-26T00:06:53.371Z,97565.97
2022-08-26T00:09:22.196Z,97563.53
2022-08-26T00:11:50.096Z,97562.44
2022-08-26T00:14:18.827Z,97555.31
2022-08-26T00:16:48.991Z,97557.22
2022-08-26T00:19:18.127Z,97562.69
2022-08-26T00:21:45.975Z,97559.41
2022-08-26T00:24:13.681Z,97560.50
2022-08-26T00:26:41.882Z,97558.31
2022-08-26T00:29:10.791Z,97556.41
2022-08-26T00:31:38.987Z,97559.66
2022-08-26T00:34:11.127Z,97560.47
2022-08-26T00:36:40.748Z,97553.66
2022-08-26T00:39:10.038Z,97553.66
2022-08-26T00:41:41.362Z,97556.66
2022-08-26T00:44:10.307Z,97559.09
2022-08-26T00:46:46.600Z,97560.22
2022-08-26T00:49:19.284Z,97555.56
2022-08-26T00:51:51.866Z,97556.66
2022-08-26T00:54:23.595Z,97558.03
2022-08-26T00:56:56.024Z,97550.91
2022-08-26T00:59:25.078Z,97555.56
2022-08-26T01:01:54.236Z,97557.72
2022-08-26T01:04:24.585Z,97559.91
2022-08-26T01:06:55.623Z,97556.38
2022-08-26T01:09:24.214Z,97560.16
2022-08-26T01:11:56.557Z,97565.91
2022-08-26T01:14:27.837Z,97557.16
2022-08-26T01:16:55.489Z,97555.81
2022-08-26T01:19:30.513Z,97551.97
2022-08-26T01:22:02.389Z,97561.50
2022-08-26T01:24:32.214Z,97560.41
2022-08-26T01:27:05.505Z,97563.94
2022-08-26T01:29:36.040Z,97558.50
2022-08-26T01:32:05.512Z,97555.22
2022-08-26T01:34:36.176Z,97559.31
2022-08-26T01:37:11.716Z,97553.06
2022-08-26T01:39:48.391Z,97556.25
2022-08-26T01:42:17.730Z,97555.72
2022-08-26T01:44:49.230Z,97552.44
2022-08-26T01:47:18.363Z,97559.00
2022-08-26T01:49:49.074Z,97556.78
2022-08-26T01:52:27.994Z,97554.34
2022-08-26T01:54:59.957Z,97562.50
2022-08-26T01:57:28.205Z,97552.94
2022-08-26T01:59:59.901Z,97555.97
2022-08-26T02:02:27.906Z,97558.94
2022-08-26T02:05:00.856Z,97564.69
2022-08-26T02:07:29.667Z,97560.31
2022-08-26T02:09:58.710Z,97569.56
2022-08-26T02:12:26.967Z,97567.91
2022-08-26T02:14:59.263Z,97562.19
2022-08-26T02:17:34.805Z,97562.47
2022-08-26T02:20:03.382Z,97563.78
2022-08-26T02:22:31.894Z,97564.91
2022-08-26T02:25:07.952Z,97572.53
2022-08-26T02:27:36.634Z,97565.69
2022-08-26T02:30:11.076Z,97562.16
2022-08-26T02:32:40.245Z,97558.03
2022-08-26T02:35:10.675Z,97556.97
2022-08-26T02:37:38.641Z,97561.03
2022-08-26T02:40:13.867Z,97562.66
2022-08-26T02:42:42.162Z,97557.22
2022-08-26T02:45:11.673Z,97559.94
2022-08-26T02:47:39.277Z,97556.09
2022-08-26T02:50:07.988Z,97561.81
2022-08-26T02:52:35.859Z,97557.19
2022-08-26T02:55:06.073Z,97559.38
2022-08-26T02:57:35.265Z,97555.81
2022-08-26T03:00:03.489Z,97552.50
2022-08-26T03:02:31.044Z,97548.44
2022-08-26T03:05:02.290Z,97549.78
2022-08-26T03:07:30.534Z,97543.50
2022-08-26T03:09:58.156Z,97545.41
2022-08-26T03:12:26.293Z,97543.78
2022-08-26T03:14:56.185Z,97539.09
2022-08-26T03:17:23.853Z,97538.28
2022-08-26T03:19:57.215Z,97533.13
2022-08-26T03:22:25.535Z,97539.06
2022-08-26T03:24:55.037Z,97532.53
2022-08-26T03:27:22.686Z,97530.91
2022-08-26T03:30:08.189Z,97536.63
2022-08-26T03:32:41.526Z,97537.16
2022-08-26T03:35:09.738Z,97534.69
2022-08-26T03:37:37.619Z,97530.84
2022-08-26T03:40:09.000Z,97525.66
2022-08-26T03:42:37.023Z,97523.75
2022-08-26T03:45:07.937Z,97530.56
2022-08-26T03:47:35.801Z,97525.66
2022-08-26T03:50:09.825Z,97532.97
2022-08-26T03:52:43.107Z,97529.44
2022-08-26T03:55:11.792Z,97528.06
2022-08-26T03:57:39.431Z,97531.84
2022-08-26T04:00:10.149Z,97525.84
2022-08-26T04:02:38.038Z,97523.13
2022-08-26T04:05:08.485Z,97538.91
2022-08-26T04:07:36.782Z,97535.63
2022-08-26T04:10:05.064Z,97542.16
2022-08-26T04:12:32.650Z,97535.06
2022-08-26T04:15:00.474Z,97538.63
2022-08-26T04:17:30.406Z,97536.16
2022-08-26T04:19:57.953Z,97535.59
2022-08-26T04:22:27.145Z,97531.47
2022-08-26T04:24:56.909Z,97538.81
2022-08-26T04:27:25.022Z,97532.56
2022-08-26T04:29:55.213Z,97532.84
2022-08-26T04:32:23.520Z,97537.47
2022-08-26T04:34:51.189Z,97529.53
2022-08-26T04:37:18.888Z,97541.25
2022-08-26T04:39:51.960Z,97533.09
2022-08-26T04:42:26.191Z,97534.16
2022-08-26T04:44:54.041Z,97539.63
2022-08-26T04:47:22.207Z,97536.88
2022-08-26T04:49:49.775Z,97537.72
2022-08-26T04:52:18.072Z,97544.81
2022-08-26T04:54:46.986Z,97535.81
2022-08-26T04:57:14.695Z,97542.91
2022-08-26T04:59:43.256Z,97543.97
2022-08-26T05:02:11.452Z,97551.91
2022-08-26T05:04:40.152Z,97548.09
2022-08-26T05:07:09.549Z,97545.09
2022-08-26T05:09:37.392Z,97541.31
2022-08-26T05:12:07.722Z,97545.94
2022-08-26T05:14:37.057Z,97545.69
2022-08-26T05:17:04.897Z,97540.78
2022-08-26T05:19:32.704Z,97551.41
2022-08-26T05:22:00.638Z,97543.25
2022-08-26T05:24:28.657Z,97537.25
2022-08-26T05:26:56.741Z,97541.19
2022-08-26T05:29:26.009Z,97541.38
2022-08-26T05:31:53.943Z,97545.13
2022-08-26T05:34:23.647Z,97544.06
2022-08-26T05:36:57.974Z,97541.13
2022-08-26T05:39:25.880Z,97545.00
2022-08-26T05:41:53.644Z,97549.03
2022-08-26T05:44:22.452Z,97551.69
2022-08-26T05:46:51.590Z,97552.50
2022-08-26T05:49:19.352Z,97552.44
2022-08-26T05:51:47.771Z,97560.38
2022-08-26T05:54:21.845Z,97546.75
2022-08-26T05:56:51.217Z,97554.38
2022-08-26T05:59:24.100Z,97557.34
2022-08-26T06:01:55.545Z,97562.50
2022-08-26T06:04:27.013Z,97555.75
2022-08-26T06:06:55.599Z,97560.38
2022-08-26T06:09:23.326Z,97561.22
2022-08-26T06:11:51.219Z,97560.63
2022-08-26T06:14:18.822Z,97562.25
2022-08-26T06:16:47.351Z,97566.94
2022-08-26T06:19:17.343Z,97569.44
2022-08-26T06:21:54.094Z,97562.06
2022-08-26T06:24:40.276Z,97569.91
2022-08-26T06:27:11.393Z,97567.50
2022-08-26T06:29:39.118Z,97565.34
2022-08-26T06:32:07.204Z,97564.28
2022-08-26T06:34:38.405Z,97567.03
2022-08-26T06:37:07.383Z,97564.31
2022-08-26T06:39:35.544Z,97564.31
2022-08-26T06:42:10.969Z,97562.69
2022-08-26T06:44:40.905Z,97566.78
2022-08-26T06:47:09.226Z,97567.63
2022-08-26T06:49:38.857Z,97573.38
2022-08-26T06:52:08.687Z,97576.13
2022-08-26T06:54:37.038Z,97570.13
2022-08-26T06:57:07.122Z,97571.81
2022-08-26T06:59:34.770Z,97566.69
2022-08-26T07:02:02.628Z,97570.78
2022-08-26T07:04:30.333Z,97562.84
2022-08-26T07:07:00.205Z,97562.03
2022-08-26T07:09:30.272Z,97567.53
2022-08-26T07:11:58.005Z,97561.50
2022-08-26T07:14:26.230Z,97562.34
2022-08-26T07:16:54.545Z,97560.16
2022-08-26T07:19:30.964Z,97560.44
2022-08-26T07:22:03.394Z,97556.41
2022-08-26T07:24:32.306Z,97558.84
2022-08-26T07:27:01.783Z,97559.41
2022-08-26T07:29:30.617Z,97559.94
2022-08-26T07:31:58.852Z,97556.41
2022-08-26T07:34:27.503Z,97568.69
2022-08-26T07:36:56.834Z,97563.25
2022-08-26T07:39:27.315Z,97564.34
2022-08-26T07:41:55.834Z,97563.81
2022-08-26T07:44:24.015Z,97572.25
2022-08-26T07:46:53.199Z,97572.84
2022-08-26T07:49:21.650Z,97574.44
2022-08-26T07:51:49.813Z,97570.31
2022-08-26T07:54:17.743Z,97576.09
2022-08-26T07:56:48.505Z,97571.16
2022-08-26T07:59:17.138Z,97571.69
2022-08-26T08:01:45.532Z,97564.03
2022-08-26T08:04:14.009Z,97568.13
2022-08-26T08:06:43.900Z,97566.50
2022-08-26T08:09:12.689Z,97562.63
2022-08-26T08:11:41.521Z,97562.09
2022-08-26T08:14:12.587Z,97554.97
2022-08-26T08:16:46.056Z,97557.69
2022-08-26T08:19:18.645Z,97557.38
2022-08-26T08:21:47.054Z,97554.59
2022-08-26T08:24:14.635Z,97552.97
2022-08-26T08:26:42.513Z,97558.16
2022-08-26T08:29:10.315Z,97554.91
2022-08-26T08:31:56.924Z,97553.78
2022-08-26T08:34:27.956Z,97553.66
2022-08-26T08:36:55.912Z,97552.38
2022-08-26T08:39:24.035Z,97556.69
2022-08-26T08:42:23.742Z,97553.81
2022-08-26T08:44:53.758Z,97555.72
2022-08-26T08:47:30.656Z,97548.00
2022-08-26T08:50:02.994Z,97545.78
2022-08-26T08:52:33.599Z,97541.13
2022-08-26T08:55:02.192Z,97546.34
2022-08-26T08:57:40.731Z,97548.47
2022-08-26T09:00:16.166Z,97547.00
2022-08-26T09:02:53.647Z,97545.25
2022-08-26T09:05:24.378Z,97544.31
2022-08-26T09:07:57.234Z,97538.81
2022-08-26T09:10:33.180Z,97540.84
2022-08-26T09:13:05.940Z,97533.41
2022-08-26T09:15:42.517Z,97534.75
2022-08-26T09:18:24.834Z,97534.44
2022-08-26T09:20:57.131Z,97532.78
2022-08-26T09:23:25.414Z,97534.22
2022-08-26T09:25:58.383Z,97526.78
2022-08-26T09:28:28.883Z,97523.75
2022-08-26T09:31:07.953Z,97519.25
2022-08-26T09:33:40.547Z,97521.56
2022-08-26T09:36:22.906Z,97527.06
2022-08-26T09:38:53.479Z,97519.44
2022-08-26T09:41:31.715Z,97521.81
2022-08-26T09:44:18.970Z,97513.53
2022-08-26T09:46:53.518Z,97508.63
2022-08-26T09:49:35.119Z,97512.63
2022-08-26T09:52:18.586Z,97505.84
2022-08-26T09:54:58.382Z,97501.25
2022-08-26T09:57:28.432Z,97493.03
2022-08-26T09:59:57.158Z,97475.00
2022-08-26T10:02:47.494Z,97475.41
2022-08-26T10:13:47.242Z,97440.88
2022-08-26T10:17:20.378Z,97446.97
2022-08-26T10:24:08.363Z,97427.44
2022-08-26T10:34:09.439Z,97415.16
2022-08-26T10:41:03.847Z,97425.63
2022-08-26T10:54:58.122Z,97407.47
2022-08-26T10:58:26.433Z,97402.56
2022-08-26T11:01:51.142Z,97410.66
2022-08-26T11:05:11.538Z,97409.34
2022-08-26T11:16:09.506Z,97404.81
2022-08-26T11:19:59.026Z,97402.00
2022-08-26T11:23:16.249Z,97404.63
2022-08-26T11:26:49.429Z,97400.09
2022-08-26T11:30:24.246Z,97394.97
2022-08-26T11:37:16.967Z,97389.72
2022-08-26T11:47:30.101Z,97365.00
2022-08-26T11:50:52.412Z,97357.94
2022-08-26T11:57:44.833Z,97355.25
2022-08-26T12:22:39.893Z,97336.34
2022-08-26T12:43:01.967Z,97319.31
2022-08-26T12:50:09.891Z,97299.81
2022-08-26T13:04:32.622Z,97271.63
2022-08-26T13:15:24.791Z,97245.91
2022-08-26T13:20:53.341Z,97245.56
2022-08-26T13:35:29.676Z,97248.00
2022-08-26T13:53:45.541Z,97265.81
2022-08-26T13:56:11.737Z,97300.78
2022-08-26T13:58:38.076Z,97305.41
2022-08-26T14:01:04.325Z,97316.72
2022-08-26T14:03:30.638Z,97357.25
2022-08-26T14:05:56.926Z,97410.19
2022-08-26T14:08:23.672Z,97505.44
2022-08-26T14:13:43.011Z,97524.19
2022-08-26T14:16:15.374Z,97500.72
2022-08-26T14:18:46.180Z,97549.31
2022-08-26T14:22:16.359Z,97625.75
2022-08-26T14:26:03.994Z,97486.47
2022-08-26T14:28:31.679Z,97464.44
2022-08-26T14:30:59.592Z,97436.31
2022-08-26T14:47:51.584Z,97353.44
2022-08-26T14:50:22.643Z,97353.91
2022-08-26T14:53:10.309Z,97348.81
2022-08-26T14:55:40.943Z,97336.38
2022-08-26T14:58:09.848Z,97335.78
2022-08-26T15:00:37.660Z,97336.84
2022-08-26T15:03:07.050Z,97366.66
2022-08-26T15:05:35.173Z,97404.13
2022-08-26T15:08:04.680Z,97449.66
2022-08-26T15:10:32.276Z,97452.41
2022-08-26T15:13:01.106Z,97438.13
2022-08-26T15:15:29.431Z,97446.91
2022-08-26T15:17:57.165Z,97445.53
2022-08-26T15:20:26.107Z,97446.38
2022-08-26T15:22:53.705Z,97441.44
2022-08-26T15:25:21.447Z,97431.63
2022-08-26T15:27:49.149Z,97426.47
2022-08-26T15:30:18.233Z,97429.22
2022-08-26T15:32:45.882Z,97430.28
2022-08-26T15:35:13.478Z,97427.84
2022-08-26T15:37:42.570Z,97435.47
2022-08-26T15:40:11.322Z,97425.38
2022-08-26T15:42:39.204Z,97401.09
2022-08-26T15:45:07.713Z,97399.66
2022-08-26T15:47:38.116Z,97413.56
2022-08-26T15:50:25.207Z,97411.84
2022-08-26T15:52:54.196Z,97404.47
2022-08-26T15:55:23.255Z,97401.72
2022-08-26T15:57:51.272Z,97390.03
2022-08-26T16:00:20.597Z,97384.81
2022-08-26T16:02:48.325Z,97379.84
2022-08-26T16:05:15.873Z,97384.81
2022-08-26T16:07:43.470Z,97383.28
2022-08-26T16:10:12.575Z,97393.47
2022-08-26T16:12:40.232Z,97398.59
2022-08-26T16:15:09.223Z,97392.00
2022-08-26T16:17:37.571Z,97397.16
2022-08-26T16:20:06.325Z,97400.22
2022-08-26T16:22:33.918Z,97393.94
2022-08-26T16:25:01.487Z,97381.69
2022-08-26T16:27:30.514Z,97378.94
2022-08-26T16:29:58.033Z,97370.75
2022-08-26T16:32:29.444Z,97363.41
2022-08-26T16:34:59.233Z,97364.53
2022-08-26T16:37:26.950Z,97352.22
2022-08-26T16:39:54.527Z,97362.00
2022-08-26T16:42:22.239Z,97366.13
2022-08-26T16:44:51.874Z,97352.16
2022-08-26T16:47:19.575Z,97348.38
2022-08-26T16:49:47.548Z,97342.66
2022-08-26T16:52:15.183Z,97347.31
2022-08-26T16:54:43.557Z,97348.34
2022-08-26T16:57:12.852Z,97345.03
2022-08-26T16:59:41.415Z,97334.13
2022-08-26T17:02:11.917Z,97336.09
2022-08-26T17:04:41.161Z,97337.78
2022-08-26T17:07:13.768Z,97342.13
2022-08-26T17:09:41.580Z,97347.00
2022-08-26T17:12:09.545Z,97355.22
2022-08-26T17:14:37.201Z,97360.63
2022-08-26T17:17:06.055Z,97348.06
2022-08-26T17:19:40.719Z,97354.00
2022-08-26T17:22:08.961Z,97351.28
2022-08-26T17:24:37.285Z,97356.25
2022-08-26T17:27:05.499Z,97367.72
2022-08-26T17:29:33.075Z,97354.34
2022-08-26T17:32:00.969Z,97364.47
2022-08-26T17:34:28.622Z,97369.41
2022-08-26T17:36:57.541Z,97360.09
2022-08-26T17:39:25.112Z,97369.13
2022-08-26T17:41:52.689Z,97369.38
2022-08-26T17:44:20.253Z,97373.50
2022-08-26T17:46:48.006Z,97374.00
2022-08-26T17:49:15.691Z,97377.53
2022-08-26T17:51:43.283Z,97375.09
2022-08-26T17:54:12.210Z,97372.38
2022-08-26T17:56:40.159Z,97374.00
2022-08-26T17:59:08.981Z,97375.09
2022-08-26T18:01:37.125Z,97383.34
2022-08-26T18:04:05.042Z,97400.84
2022-08-26T18:06:33.678Z,97399.72
2022-08-26T18:09:01.806Z,97397.84
2022-08-26T18:11:31.753Z,97408.75
2022-08-26T18:13:59.980Z,97404.41
2022-08-26T18:16:31.844Z,97402.19
2022-08-26T18:19:00.678Z,97410.41
2022-08-26T18:21:28.899Z,97400.00
2022-08-26T18:23:56.938Z,97411.22
2022-08-26T18:26:26.905Z,97412.56
2022-08-26T18:28:56.355Z,97414.75
2022-08-26T18:31:24.795Z,97422.63
2022-08-26T18:33:53.065Z,97431.94
2022-08-26T18:36:23.699Z,97437.94
2022-08-26T18:38:52.292Z,97432.22
2022-08-26T18:41:21.393Z,97443.13
2022-08-26T18:43:50.553Z,97440.41
2022-08-26T18:46:20.845Z,97448.28
2022-08-26T18:48:49.055Z,97465.78
2022-08-26T18:51:21.263Z,97448.31
2022-08-26T18:53:48.881Z,97447.22
2022-08-26T18:56:18.541Z,97442.03
2022-08-26T18:58:46.933Z,97436.31
2022-08-26T19:01:14.920Z,97441.50
2022-08-26T19:03:44.524Z,97448.31
2022-08-26T19:06:14.683Z,97445.31
2022-08-26T19:08:44.564Z,97448.06
2022-08-26T19:11:13.853Z,97427.28
2022-08-26T19:13:42.069Z,97439.03
2022-08-26T19:16:16.178Z,97442.03
2022-08-26T19:18:45.557Z,97435.47
2022-08-26T19:21:14.131Z,97431.66
2022-08-26T19:23:41.959Z,97431.94
2022-08-26T19:26:10.622Z,97438.47
2022-08-26T19:28:40.765Z,97444.50
2022-08-26T19:31:10.375Z,97434.66
2022-08-26T19:33:39.524Z,97446.69
2022-08-26T19:36:14.565Z,97450.22
2022-08-26T19:38:43.265Z,97452.16
2022-08-26T19:41:13.245Z,97455.97
2022-08-26T19:43:40.802Z,97454.88
2022-08-26T19:46:12.855Z,97461.97
2022-08-26T19:48:40.545Z,97461.69
2022-08-26T19:51:09.641Z,97471.50
2022-08-26T19:53:37.394Z,97469.63
2022-08-26T19:56:09.062Z,97481.34
2022-08-26T19:58:36.622Z,97476.69
2022-08-26T20:01:04.767Z,97470.41
2022-08-26T20:03:33.378Z,97475.06
2022-08-26T20:06:01.195Z,97467.97
2022-08-26T20:08:30.293Z,97467.97
2022-08-26T20:11:01.881Z,97468.50
2022-08-26T20:13:29.760Z,97459.78
2022-08-26T20:15:57.459Z,97477.50
2022-08-26T20:18:42.856Z,97488.91
2022-08-26T20:21:29.351Z,97513.91
2022-08-26T20:24:01.379Z,97534.69
2022-08-26T20:26:30.240Z,97547.28
2022-08-26T20:28:58.782Z,97554.50
2022-08-26T20:31:27.299Z,97556.25
2022-08-26T20:33:55.533Z,97547.31
2022-08-26T20:36:25.919Z,97557.94
2022-08-26T20:38:54.556Z,97564.06
2022-08-26T20:41:25.457Z,97568.03
2022-08-26T20:43:53.267Z,97567.22
2022-08-26T20:46:24.541Z,97569.44
2022-08-26T20:48:53.275Z,97564.97
2022-08-26T20:51:21.302Z,97576.84
2022-08-26T20:53:49.112Z,97575.28
2022-08-26T20:56:21.665Z,97578.44
2022-08-26T20:58:51.689Z,97570.69
2022-08-26T21:01:21.669Z,97569.59
2022-08-26T21:03:51.981Z,97586.38
2022-08-26T21:06:19.919Z,97602.84
2022-08-26T21:08:48.508Z,97616.81
